x

Isle Of Shoals, Nh (iosn3) Weather Station

1:00 - Sun 23rd Nov 2014 All times are EST. -5 hours from GMT.

  • Wind
    24mph, 26mph gusts
  • Ar Temp 43°f
  • Sea Pressure 1015.7mb
  • Isle Of Shoals, Nh
  • Isle Of Shoals, Nh

More Historic Weather Station data

Upgrade to MSW Pro to gain access to the past 30 days of data for over 8000 Wavebouys and Weather Stations around the globe.

Join Pro

Comparision Forecast

View Surf forecast
   
Dom 11/23 1:00 24 26 mph 1015.7mb 43f
12:00 22 24 mph 1015.7mb 42f
Sáb 11/22 11:00 24 26 mph 1015.5mb 42f
10:00 30 34 mph 1015.1mb 42f
9:00 33 38 mph 1015.4mb 41f
8:00 32 36 mph 1015.6mb 42f
7:00 31 33 mph 1016.2mb 42f
6:00 28 31 mph 1016.9mb 42f
5:00 29 33 mph 1017.6mb 43f
4:00 25 28 mph 1018.3mb 42f
3:00 21 23 mph 1019.6mb 39f
2:00 23 24 mph 1020.1mb 37f
1:00 25 29 mph 1021.2mb 35f
12:00 25 31 mph 1022.3mb 34f
11:00 26 30 mph 1024.1mb 31f
10:00 21 23 mph 1026mb 30f
9:00 23 25 mph 1027mb 29f
8:00 24 28 mph 1027.4mb 28f
7:00 22 25 mph 1027.6mb 27f
6:00 18 21 mph 1028.1mb 27f
5:00 20 23 mph 1028.1mb 27f
4:00 24 28 mph 1027.9mb 27f
3:00 23 26 mph 1028mb 27f
2:00 23 29 mph 1028.2mb 27f
1:00 24 29 mph 1027.6mb 27f
12:00 22 24 mph 1027.8mb 27f
Sex 11/21 11:00 23 25 mph 1027.4mb 27f
10:00 31 36 mph 1026.8mb 28f
9:00 31 36 mph 1026.2mb 29f
8:00 25 26 mph 1025.8mb 30f
7:00 20 25 mph 1025.9mb 30f
6:00 24 29 mph 1024.7mb 30f
5:00 29 33 mph 1023.1mb 31f
4:00 32 36 mph 1021.5mb 31f
3:00 31 33 mph 1020.3mb 31f
2:00 31 36 mph 1019mb 31f
1:00 34 37 mph 1018.1mb 31f
12:00 31 34 mph 1017.3mb 31f
11:00 28 33 mph 1017mb 31f
10:00 28 31 mph 1016.6mb 30f
9:00 30 38 mph 1015.7mb 29f
8:00 30 33 mph 1015.1mb 28f
7:00 32 38 mph 1014mb 29f
6:00 25 31 mph 1013.6mb 29f
5:00 24 28 mph 1012.6mb 29f
4:00 25 31 mph 1012.2mb 30f
3:00 25 30 mph 1011.8mb 30f
2:00 26 30 mph 1011.5mb 31f
1:00 24 28 mph 1011.1mb 32f
12:00 20 23 mph 1011.4mb 33f
Qui 11/20 11:00 20 23 mph 1011.2mb 34f
10:00 21 23 mph 1010.9mb 35f
9:00 20 23 mph 1010.7mb 35f
8:00 25 30 mph 1010mb 36f
7:00 24 29 mph 1009.3mb 38f
6:00 26 29 mph 1008.1mb 38f
5:00 23 25 mph 1007.3mb 41f
4:00 21 23 mph 1006.5mb 43f
3:00 23 25 mph 1005.9mb 43f
2:00 28 31 mph 1006mb 43f
1:00 23 26 mph 1006.6mb 43f
12:00 16 18 mph 1007.9mb 41f
11:00 18 21 mph 1009.1mb 39f
10:00 23 26 mph 1010mb 37f
9:00 25 28 mph 1010.7mb 37f
8:00 26 29 mph 1011.2mb 36f
7:00 30 33 mph 1011mb 36f
6:00 33 38 mph 1011.3mb 35f
5:00 29 32 mph 1012.2mb 35f
4:00 25 29 mph 1013mb 34f
3:00 25 29 mph 1013.7mb 33f
2:00 26 28 mph 1014.7mb 33f
1:00 29 32 mph 1015.4mb 31f
12:00 22 24 mph 1016.6mb 31f
Qua 11/19 11:00 24 26 mph 1017mb 32f
10:00 28 30 mph 1016.9mb 33f
9:00 25 28 mph 1017.7mb 33f
8:00 26 29 mph 1017.9mb 34f
7:00 30 33 mph 1018.1mb 34f
6:00 26 30 mph 1018.3mb 35f
5:00 22 24 mph 1018.3mb 35f
4:00 15 18 mph 1018mb 35f
3:00 10 15 mph 1018mb 35f
2:00 9 11 mph 1017.8mb 34f
1:00 15 20 mph 1017.9mb 33f
12:00 25 29 mph 1017.8mb 32f
11:00 22 28 mph 1018.2mb 31f
10:00 28 32 mph 1017.4mb 29f
9:00 28 38 mph 1016.9mb 28f
8:00 32 37 mph 1015.7mb 27f